sensor_id;sensor_type;location;lat;lon;timestamp;pressure;altitude;pressure_sealevel;temperature;humidity
17936;BME280;9093;52.062;4.508;2023-02-26T00:01:36;102303.44;;;3.93;63.84
17936;BME280;9093;52.062;4.508;2023-02-26T00:04:16;102304.34;;;3.91;63.85
17936;BME280;9093;52.062;4.508;2023-02-26T00:06:57;102311.38;;;3.90;63.46
17936;BME280;9093;52.062;4.508;2023-02-26T00:09:37;102312.25;;;3.88;63.76
17936;BME280;9093;52.062;4.508;2023-02-26T00:12:18;102317.53;;;3.86;63.97
17936;BME280;9093;52.062;4.508;2023-02-26T00:14:59;102316.69;;;3.84;63.64
17936;BME280;9093;52.062;4.508;2023-02-26T00:18:01;102321.09;;;3.78;64.02
17936;BME280;9093;52.062;4.508;2023-02-26T00:20:43;102316.69;;;3.77;63.85
17936;BME280;9093;52.062;4.508;2023-02-26T00:23:23;102335.19;;;3.77;63.77
17936;BME280;9093;52.062;4.508;2023-02-26T00:26:04;102336.94;;;3.73;64.21
17936;BME280;9093;52.062;4.508;2023-02-26T00:28:44;102336.09;;;3.71;64.20
17936;BME280;9093;52.062;4.508;2023-02-26T00:31:28;102339.59;;;3.73;63.94
17936;BME280;9093;52.062;4.508;2023-02-26T00:34:12;102340.47;;;3.74;64.17
17936;BME280;9093;52.062;4.508;2023-02-26T00:37:16;102344.00;;;3.71;64.38
17936;BME280;9093;52.062;4.508;2023-02-26T00:42:53;102354.59;;;3.71;64.28
17936;BME280;9093;52.062;4.508;2023-02-26T00:45:33;102363.38;;;3.72;64.23
17936;BME280;9093;52.062;4.508;2023-02-26T00:48:38;102369.56;;;3.72;64.41
17936;BME280;9093;52.062;4.508;2023-02-26T00:51:54;102372.19;;;3.75;64.23
17936;BME280;9093;52.062;4.508;2023-02-26T00:54:35;102371.31;;;3.79;64.40
17936;BME280;9093;52.062;4.508;2023-02-26T00:57:16;102377.44;;;3.83;64.26
17936;BME280;9093;52.062;4.508;2023-02-26T00:59:56;102381.88;;;3.85;64.75
17936;BME280;9093;52.062;4.508;2023-02-26T01:02:38;102373.03;;;3.89;64.36
17936;BME280;9093;52.062;4.508;2023-02-26T01:05:19;102378.28;;;3.92;64.76
17936;BME280;9093;52.062;4.508;2023-02-26T01:08:04;102387.13;;;3.94;64.62
17936;BME280;9093;52.062;4.508;2023-02-26T01:10:49;102383.56;;;3.98;64.59
17936;BME280;9093;52.062;4.508;2023-02-26T01:13:29;102387.97;;;4.01;64.66
17936;BME280;9093;52.062;4.508;2023-02-26T01:16:13;102392.41;;;4.03;64.84
17936;BME280;9093;52.062;4.508;2023-02-26T01:19:17;102394.16;;;4.01;64.77
17936;BME280;9093;52.062;4.508;2023-02-26T01:22:07;102400.31;;;4.02;64.86
17936;BME280;9093;52.062;4.508;2023-02-26T01:24:55;102394.16;;;4.01;64.65
17936;BME280;9093;52.062;4.508;2023-02-26T01:27:39;102403.88;;;3.98;64.96
17936;BME280;9093;52.062;4.508;2023-02-26T01:30:19;102405.63;;;3.94;64.81
17936;BME280;9093;52.062;4.508;2023-02-26T01:33:16;102413.56;;;3.90;64.90
17936;BME280;9093;52.062;4.508;2023-02-26T01:36:02;102415.31;;;3.89;64.70
17936;BME280;9093;52.062;4.508;2023-02-26T01:39:07;102422.38;;;3.84;64.61
17936;BME280;9093;52.062;4.508;2023-02-26T01:41:54;102426.78;;;3.85;64.62
17936;BME280;9093;52.062;4.508;2023-02-26T01:44:54;102420.59;;;3.80;64.72
17936;BME280;9093;52.062;4.508;2023-02-26T01:50:24;102430.31;;;3.77;64.59
17936;BME280;9093;52.062;4.508;2023-02-26T01:55:54;102432.94;;;3.71;64.89
17936;BME280;9093;52.062;4.508;2023-02-26T01:58:35;102434.69;;;3.67;64.75
17936;BME280;9093;52.062;4.508;2023-02-26T02:01:16;102431.19;;;3.62;64.51
17936;BME280;9093;52.062;4.508;2023-02-26T02:03:57;102438.22;;;3.55;64.80
17936;BME280;9093;52.062;4.508;2023-02-26T02:06:38;102444.38;;;3.51;64.94
17936;BME280;9093;52.062;4.508;2023-02-26T02:09:18;102446.13;;;3.49;64.54
17936;BME280;9093;52.062;4.508;2023-02-26T02:12:37;102457.59;;;3.41;64.81
17936;BME280;9093;52.062;4.508;2023-02-26T02:27:53;102472.44;;;3.10;64.67
17936;BME280;9093;52.062;4.508;2023-02-26T02:34:01;102476.81;;;2.97;64.70
17936;BME280;9093;52.062;4.508;2023-02-26T02:36:59;102491.75;;;2.94;64.80
17936;BME280;9093;52.062;4.508;2023-02-26T02:39:48;102490.00;;;2.90;64.89
17936;BME280;9093;52.062;4.508;2023-02-26T02:42:34;102485.56;;;2.87;64.79
17936;BME280;9093;52.062;4.508;2023-02-26T02:45:21;102501.41;;;2.84;64.82
17936;BME280;9093;52.062;4.508;2023-02-26T02:48:13;102498.72;;;2.79;64.79
17936;BME280;9093;52.062;4.508;2023-02-26T02:50:59;102503.09;;;2.74;65.02
17936;BME280;9093;52.062;4.508;2023-02-26T02:53:46;102503.09;;;2.70;64.95
17936;BME280;9093;52.062;4.508;2023-02-26T02:56:34;102507.47;;;2.65;65.08
17936;BME280;9093;52.062;4.508;2023-02-26T02:59:38;102503.91;;;2.60;64.79
17936;BME280;9093;52.062;4.508;2023-02-26T03:05:36;102507.41;;;2.53;64.97
17936;BME280;9093;52.062;4.508;2023-02-26T03:08:21;102510.00;;;2.50;64.66
17936;BME280;9093;52.062;4.508;2023-02-26T03:11:02;102502.06;;;2.45;64.97
17936;BME280;9093;52.062;4.508;2023-02-26T03:13:43;102505.53;;;2.41;65.00
17936;BME280;9093;52.062;4.508;2023-02-26T03:16:28;102506.44;;;2.38;64.82
17936;BME280;9093;52.062;4.508;2023-02-26T03:25:49;102520.44;;;2.31;64.92
17936;BME280;9093;52.062;4.508;2023-02-26T03:28:35;102527.47;;;2.32;64.83
17936;BME280;9093;52.062;4.508;2023-02-26T03:32:20;102524.81;;;2.29;64.66
17936;BME280;9093;52.062;4.508;2023-02-26T03:34:49;102529.22;;;2.30;64.71
17936;BME280;9093;52.062;4.508;2023-02-26T03:37:53;102523.94;;;2.27;64.76
17936;BME280;9093;52.062;4.508;2023-02-26T03:40:46;102537.97;;;2.29;64.53
17936;BME280;9093;52.062;4.508;2023-02-26T03:43:33;102536.22;;;2.25;64.57
17936;BME280;9093;52.062;4.508;2023-02-26T03:46:22;102538.84;;;2.25;64.55
17936;BME280;9093;52.062;4.508;2023-02-26T03:49:19;102537.94;;;2.23;64.80
17936;BME280;9093;52.062;4.508;2023-02-26T03:52:04;102545.88;;;2.25;64.90
17936;BME280;9093;52.062;4.508;2023-02-26T03:55:04;102545.84;;;2.23;64.80
17936;BME280;9093;52.062;4.508;2023-02-26T03:57:46;102553.78;;;2.25;64.63
17936;BME280;9093;52.062;4.508;2023-02-26T04:00:30;102552.03;;;2.25;64.41
17936;BME280;9093;52.062;4.508;2023-02-26T04:03:28;102550.25;;;2.21;64.70
17936;BME280;9093;52.062;4.508;2023-02-26T04:06:11;102552.88;;;2.24;64.55
17936;BME280;9093;52.062;4.508;2023-02-26T04:08:52;102552.00;;;2.24;64.59
17936;BME280;9093;52.062;4.508;2023-02-26T04:11:34;102560.78;;;2.24;64.51
17936;BME280;9093;52.062;4.508;2023-02-26T04:14:15;102566.06;;;2.24;64.44
17936;BME280;9093;52.062;4.508;2023-02-26T04:16:56;102564.28;;;2.23;64.57
17936;BME280;9093;52.062;4.508;2023-02-26T04:19:36;102570.44;;;2.24;64.38
17936;BME280;9093;52.062;4.508;2023-02-26T04:22:16;102578.34;;;2.24;64.51
17936;BME280;9093;52.062;4.508;2023-02-26T04:24:57;102573.97;;;2.24;64.42
17936;BME280;9093;52.062;4.508;2023-02-26T04:27:37;102575.75;;;2.25;64.30
17936;BME280;9093;52.062;4.508;2023-02-26T04:30:18;102580.16;;;2.26;64.56
17936;BME280;9093;52.062;4.508;2023-02-26T04:32:58;102583.66;;;2.28;64.43
17936;BME280;9093;52.062;4.508;2023-02-26T04:35:38;102585.44;;;2.29;64.41
17936;BME280;9093;52.062;4.508;2023-02-26T04:38:18;102579.28;;;2.29;64.45
17936;BME280;9093;52.062;4.508;2023-02-26T04:40:59;102581.91;;;2.27;64.39
17936;BME280;9093;52.062;4.508;2023-02-26T04:43:40;102585.41;;;2.26;64.26
17936;BME280;9093;52.062;4.508;2023-02-26T04:46:20;102588.91;;;2.25;64.13
17936;BME280;9093;52.062;4.508;2023-02-26T04:49:00;102597.69;;;2.24;64.15
17936;BME280;9093;52.062;4.508;2023-02-26T04:51:41;102599.41;;;2.22;64.27
17936;BME280;9093;52.062;4.508;2023-02-26T04:54:21;102602.94;;;2.23;64.38
17936;BME280;9093;52.062;4.508;2023-02-26T04:57:01;102608.22;;;2.21;64.29
17936;BME280;9093;52.062;4.508;2023-02-26T04:59:42;102612.59;;;2.21;64.16
17936;BME280;9093;52.062;4.508;2023-02-26T05:02:22;102617.00;;;2.20;64.10
17936;BME280;9093;52.062;4.508;2023-02-26T05:05:03;102608.19;;;2.18;64.18
17936;BME280;9093;52.062;4.508;2023-02-26T05:07:43;102615.22;;;2.19;64.31
17936;BME280;9093;52.062;4.508;2023-02-26T05:10:24;102621.38;;;2.20;63.95
17936;BME280;9093;52.062;4.508;2023-02-26T05:13:04;102612.59;;;2.19;63.95
17936;BME280;9093;52.062;4.508;2023-02-26T05:15:45;102616.94;;;2.17;64.37
17936;BME280;9093;52.062;4.508;2023-02-26T05:18:25;102624.88;;;2.19;64.17
17936;BME280;9093;52.062;4.508;2023-02-26T05:21:05;102622.25;;;2.20;63.93
17936;BME280;9093;52.062;4.508;2023-02-26T05:23:46;102626.59;;;2.17;64.04
17936;BME280;9093;52.062;4.508;2023-02-26T05:26:26;102632.75;;;2.17;64.35
17936;BME280;9093;52.062;4.508;2023-02-26T05:29:07;102634.50;;;2.15;63.92
17936;BME280;9093;52.062;4.508;2023-02-26T05:31:47;102641.53;;;2.13;64.21
17936;BME280;9093;52.062;4.508;2023-02-26T05:34:28;102644.13;;;2.12;63.92
17936;BME280;9093;52.062;4.508;2023-02-26T05:37:08;102642.34;;;2.11;64.40
17936;BME280;9093;52.062;4.508;2023-02-26T05:39:48;102639.69;;;2.09;64.41
17936;BME280;9093;52.062;4.508;2023-02-26T05:42:29;102652.00;;;2.10;64.27
17936;BME280;9093;52.062;4.508;2023-02-26T05:45:09;102660.78;;;2.09;64.20
17936;BME280;9093;52.062;4.508;2023-02-26T05:47:50;102668.66;;;2.06;64.01
17936;BME280;9093;52.062;4.508;2023-02-26T05:50:30;102660.72;;;2.03;64.17
17936;BME280;9093;52.062;4.508;2023-02-26T05:53:11;102662.47;;;2.01;64.36
17936;BME280;9093;52.062;4.508;2023-02-26T05:55:54;102668.63;;;2.01;64.36
17936;BME280;9093;52.062;4.508;2023-02-26T05:58:34;102670.38;;;2.01;64.42
17936;BME280;9093;52.062;4.508;2023-02-26T06:01:15;102674.75;;;1.99;64.18
17936;BME280;9093;52.062;4.508;2023-02-26T06:03:55;102674.72;;;1.97;64.28
17936;BME280;9093;52.062;4.508;2023-02-26T06:06:35;102675.59;;;1.95;64.42
17936;BME280;9093;52.062;4.508;2023-02-26T06:09:16;102683.50;;;1.95;64.49
17936;BME280;9093;52.062;4.508;2023-02-26T06:11:56;102680.00;;;1.96;64.39
17936;BME280;9093;52.062;4.508;2023-02-26T06:14:37;102686.13;;;1.95;64.21
17936;BME280;9093;52.062;4.508;2023-02-26T06:17:17;102693.13;;;1.93;64.36
17936;BME280;9093;52.062;4.508;2023-02-26T06:19:57;102703.63;;;1.91;64.10
17936;BME280;9093;52.062;4.508;2023-02-26T06:22:38;102719.41;;;1.88;64.38
17936;BME280;9093;52.062;4.508;2023-02-26T06:25:18;102720.25;;;1.86;64.45
17936;BME280;9093;52.062;4.508;2023-02-26T06:27:59;102716.69;;;1.84;64.25
17936;BME280;9093;52.062;4.508;2023-02-26T06:30:39;102730.78;;;1.83;64.50
17936;BME280;9093;52.062;4.508;2023-02-26T06:33:20;102728.06;;;1.80;64.39
17936;BME280;9093;52.062;4.508;2023-02-26T06:36:00;102730.69;;;1.77;64.34
17936;BME280;9093;52.062;4.508;2023-02-26T06:38:41;102734.19;;;1.76;64.61
17936;BME280;9093;52.062;4.508;2023-02-26T06:41:24;102742.09;;;1.76;64.49
17936;BME280;9093;52.062;4.508;2023-02-26T06:44:04;102747.34;;;1.76;64.50
17936;BME280;9093;52.062;4.508;2023-02-26T06:46:44;102747.34;;;1.76;64.57
17936;BME280;9093;52.062;4.508;2023-02-26T06:49:25;102749.09;;;1.75;64.59
17936;BME280;9093;52.062;4.508;2023-02-26T06:52:05;102764.03;;;1.78;64.43
17936;BME280;9093;52.062;4.508;2023-02-26T06:54:46;102773.69;;;1.77;64.55
17936;BME280;9093;52.062;4.508;2023-02-26T06:57:26;102772.84;;;1.77;64.40
17936;BME280;9093;52.062;4.508;2023-02-26T07:00:07;102769.31;;;1.76;64.23
17936;BME280;9093;52.062;4.508;2023-02-26T07:02:49;102778.09;;;1.77;64.34
17936;BME280;9093;52.062;4.508;2023-02-26T07:05:29;102782.47;;;1.78;64.40
17936;BME280;9093;52.062;4.508;2023-02-26T07:08:10;102796.50;;;1.75;64.34
17936;BME280;9093;52.062;4.508;2023-02-26T07:10:50;102799.16;;;1.77;64.53
17936;BME280;9093;52.062;4.508;2023-02-26T07:13:30;102803.53;;;1.76;64.49
17936;BME280;9093;52.062;4.508;2023-02-26T07:16:11;102808.81;;;1.78;64.31
17936;BME280;9093;52.062;4.508;2023-02-26T07:18:51;102809.69;;;1.78;64.24
17936;BME280;9093;52.062;4.508;2023-02-26T07:21:31;102807.94;;;1.79;64.34
17936;BME280;9093;52.062;4.508;2023-02-26T07:24:12;102807.97;;;1.80;64.34
17936;BME280;9093;52.062;4.508;2023-02-26T07:26:52;102815.91;;;1.82;64.46
17936;BME280;9093;52.062;4.508;2023-02-26T07:29:32;102815.03;;;1.84;64.43
17936;BME280;9093;52.062;4.508;2023-02-26T07:32:13;102821.19;;;1.85;64.39
17936;BME280;9093;52.062;4.508;2023-02-26T07:34:53;102823.88;;;1.88;64.54
17936;BME280;9093;52.062;4.508;2023-02-26T07:37:33;102825.66;;;1.89;64.55
17936;BME280;9093;52.062;4.508;2023-02-26T07:40:14;102832.72;;;1.91;64.42
17936;BME280;9093;52.062;4.508;2023-02-26T07:42:54;102838.88;;;1.92;64.44
17936;BME280;9093;52.062;4.508;2023-02-26T07:45:35;102839.78;;;1.94;64.62
17936;BME280;9093;52.062;4.508;2023-02-26T07:48:16;102841.56;;;1.98;64.38
17936;BME280;9093;52.062;4.508;2023-02-26T07:50:56;102839.84;;;2.00;64.43
17936;BME280;9093;52.062;4.508;2023-02-26T07:53:36;102837.28;;;2.05;64.18
17936;BME280;9093;52.062;4.508;2023-02-26T07:56:17;102840.84;;;2.08;64.15
17936;BME280;9093;52.062;4.508;2023-02-26T07:58:57;102838.28;;;2.14;64.19
17936;BME280;9093;52.062;4.508;2023-02-26T08:01:37;102843.63;;;2.20;64.10
17936;BME280;9093;52.062;4.508;2023-02-26T08:04:18;102849.00;;;2.26;64.26
17936;BME280;9093;52.062;4.508;2023-02-26T08:06:59;102857.84;;;2.31;64.05
17936;BME280;9093;52.062;4.508;2023-02-26T08:09:40;102859.63;;;2.35;63.93
17936;BME280;9093;52.062;4.508;2023-02-26T08:12:20;102862.34;;;2.40;63.77
17936;BME280;9093;52.062;4.508;2023-02-26T08:15:01;102865.91;;;2.45;63.89
17936;BME280;9093;52.062;4.508;2023-02-26T08:17:42;102860.66;;;2.48;63.91
17936;BME280;9093;52.062;4.508;2023-02-26T08:20:22;102873.03;;;2.55;63.81
17936;BME280;9093;52.062;4.508;2023-02-26T08:23:02;102880.16;;;2.59;63.77
17936;BME280;9093;52.062;4.508;2023-02-26T08:25:43;102883.72;;;2.64;63.66
17936;BME280;9093;52.062;4.508;2023-02-26T08:28:24;102886.41;;;2.69;63.62
17936;BME280;9093;52.062;4.508;2023-02-26T08:31:05;102881.13;;;2.72;63.62
17936;BME280;9093;52.062;4.508;2023-02-26T08:33:46;102889.97;;;2.74;63.60
17936;BME280;9093;52.062;4.508;2023-02-26T08:36:26;102889.13;;;2.76;63.67
17936;BME280;9093;52.062;4.508;2023-02-26T08:39:07;102900.63;;;2.83;63.54
17936;BME280;9093;52.062;4.508;2023-02-26T08:41:47;102890.97;;;2.87;63.34
17936;BME280;9093;52.062;4.508;2023-02-26T08:44:27;102900.72;;;2.92;63.46
17936;BME280;9093;52.062;4.508;2023-02-26T08:47:08;102904.25;;;2.93;63.48
17936;BME280;9093;52.062;4.508;2023-02-26T08:49:48;102914.81;;;2.97;63.58
17936;BME280;9093;52.062;4.508;2023-02-26T08:52:29;102923.69;;;3.02;63.09
17936;BME280;9093;52.062;4.508;2023-02-26T08:55:09;102921.94;;;3.03;63.23
17936;BME280;9093;52.062;4.508;2023-02-26T08:57:50;102921.09;;;3.07;63.34
17936;BME280;9093;52.062;4.508;2023-02-26T09:00:30;102929.94;;;3.10;63.44
17936;BME280;9093;52.062;4.508;2023-02-26T09:03:11;102925.56;;;3.12;63.15
17936;BME280;9093;52.062;4.508;2023-02-26T09:05:51;102929.97;;;3.16;63.16
17936;BME280;9093;52.062;4.508;2023-02-26T09:08:32;102930.91;;;3.18;63.18
17936;BME280;9093;52.062;4.508;2023-02-26T09:11:15;102934.47;;;3.23;63.22
17936;BME280;9093;52.062;4.508;2023-02-26T09:13:56;102938.03;;;3.27;63.10
17936;BME280;9093;52.062;4.508;2023-02-26T09:16:38;102937.16;;;3.30;63.03
17936;BME280;9093;52.062;4.508;2023-02-26T09:19:18;102943.41;;;3.35;62.79
17936;BME280;9093;52.062;4.508;2023-02-26T09:21:58;102941.66;;;3.38;63.01
17936;BME280;9093;52.062;4.508;2023-02-26T09:24:39;102948.72;;;3.42;62.80
17936;BME280;9093;52.062;4.508;2023-02-26T09:27:19;102951.44;;;3.47;62.85
17936;BME280;9093;52.062;4.508;2023-02-26T09:29:59;102961.13;;;3.51;62.50
17936;BME280;9093;52.062;4.508;2023-02-26T09:32:40;102970.88;;;3.56;62.76
17936;BME280;9093;52.062;4.508;2023-02-26T09:35:20;102970.91;;;3.59;62.48
17936;BME280;9093;52.062;4.508;2023-02-26T09:38:01;102968.28;;;3.64;62.52
17936;BME280;9093;52.062;4.508;2023-02-26T09:46:51;102986.84;;;3.73;62.30
17936;BME280;9093;52.062;4.508;2023-02-26T09:49:48;102991.31;;;3.77;62.25
17936;BME280;9093;52.062;4.508;2023-02-26T09:52:38;102988.69;;;3.82;62.01
17936;BME280;9093;52.062;4.508;2023-02-26T09:55:26;102996.66;;;3.86;62.26
17936;BME280;9093;52.062;4.508;2023-02-26T09:58:18;102993.19;;;3.90;61.92
17936;BME280;9093;52.062;4.508;2023-02-26T10:13:53;103008.38;;;4.17;61.47
17936;BME280;9093;52.062;4.508;2023-02-26T10:16:39;103003.97;;;4.24;61.40
17936;BME280;9093;52.062;4.508;2023-02-26T10:19:25;103012.81;;;4.26;61.53
17936;BME280;9093;52.062;4.508;2023-02-26T10:22:35;103026.06;;;4.27;61.37
17936;BME280;9093;52.062;4.508;2023-02-26T10:25:20;103019.94;;;4.33;61.18
17936;BME280;9093;52.062;4.508;2023-02-26T10:28:25;103032.28;;;4.34;61.11
17936;BME280;9093;52.062;4.508;2023-02-26T10:34:31;103027.91;;;4.40;61.02
17936;BME280;9093;52.062;4.508;2023-02-26T10:37:27;103037.59;;;4.43;61.14
17936;BME280;9093;52.062;4.508;2023-02-26T10:40:18;103046.50;;;4.51;60.83
17936;BME280;9093;52.062;4.508;2023-02-26T10:43:21;103039.47;;;4.56;60.89
17936;BME280;9093;52.062;4.508;2023-02-26T10:46:26;103042.13;;;4.62;61.07
17936;BME280;9093;52.062;4.508;2023-02-26T10:52:13;103045.75;;;4.76;60.79
17936;BME280;9093;52.062;4.508;2023-02-26T10:55:11;103044.88;;;4.77;60.80
17936;BME280;9093;52.062;4.508;2023-02-26T10:58:15;103047.56;;;4.83;60.68
17936;BME280;9093;52.062;4.508;2023-02-26T11:00:57;103051.13;;;4.90;60.41
17936;BME280;9093;52.062;4.508;2023-02-26T11:03:41;103052.00;;;4.94;60.59
17936;BME280;9093;52.062;4.508;2023-02-26T11:06:29;103047.63;;;5.00;60.55
17936;BME280;9093;52.062;4.508;2023-02-26T11:09:20;103053.84;;;5.07;60.30
17936;BME280;9093;52.062;4.508;2023-02-26T11:12:05;103047.69;;;5.14;60.45
17936;BME280;9093;52.062;4.508;2023-02-26T11:14:47;103062.72;;;5.18;60.16
17936;BME280;9093;52.062;4.508;2023-02-26T11:17:28;103053.91;;;5.25;60.47
17936;BME280;9093;52.062;4.508;2023-02-26T11:23:15;103047.78;;;5.44;60.03
17936;BME280;9093;52.062;4.508;2023-02-26T11:26:05;103044.28;;;5.54;60.25
17936;BME280;9093;52.062;4.508;2023-02-26T11:28:48;103050.50;;;5.72;59.83
17936;BME280;9093;52.062;4.508;2023-02-26T11:31:29;103054.03;;;5.80;60.35
17936;BME280;9093;52.062;4.508;2023-02-26T11:34:10;103055.84;;;5.97;59.91
17936;BME280;9093;52.062;4.508;2023-02-26T11:36:55;103036.41;;;6.09;59.84
17936;BME280;9093;52.062;4.508;2023-02-26T11:39:37;103034.63;;;6.20;59.80
17936;BME280;9093;52.062;4.508;2023-02-26T11:42:18;103039.06;;;6.26;59.89
17936;BME280;9093;52.062;4.508;2023-02-26T11:44:58;103031.97;;;6.29;60.37
17936;BME280;9093;52.062;4.508;2023-02-26T11:47:39;103043.44;;;6.33;59.91
17936;BME280;9093;52.062;4.508;2023-02-26T11:50:20;103030.19;;;6.33;59.98
17936;BME280;9093;52.062;4.508;2023-02-26T11:53:09;103027.53;;;6.34;59.95
17936;BME280;9093;52.062;4.508;2023-02-26T11:56:00;103032.84;;;6.34;59.75
17936;BME280;9093;52.062;4.508;2023-02-26T11:58:44;103038.16;;;6.34;59.83
17936;BME280;9093;52.062;4.508;2023-02-26T12:01:27;103034.63;;;6.38;59.61
17936;BME280;9093;52.062;4.508;2023-02-26T12:04:11;103028.41;;;6.41;59.81
17936;BME280;9093;52.062;4.508;2023-02-26T12:06:54;103036.38;;;6.39;59.70
17936;BME280;9093;52.062;4.508;2023-02-26T12:09:34;103029.28;;;6.41;59.71
17936;BME280;9093;52.062;4.508;2023-02-26T12:15:22;103035.47;;;6.48;59.40
17936;BME280;9093;52.062;4.508;2023-02-26T12:21:17;103039.91;;;6.41;58.88
17936;BME280;9093;52.062;4.508;2023-02-26T12:29:47;103038.16;;;6.28;58.82
17936;BME280;9093;52.062;4.508;2023-02-26T12:35:41;103034.63;;;6.23;58.51
17936;BME280;9093;52.062;4.508;2023-02-26T12:41:28;103037.28;;;6.23;58.30
17936;BME280;9093;52.062;4.508;2023-02-26T12:53:39;103035.50;;;6.30;58.48
17936;BME280;9093;52.062;4.508;2023-02-26T12:59:52;103034.59;;;6.32;58.18
17936;BME280;9093;52.062;4.508;2023-02-26T13:02:49;103032.84;;;6.34;58.28
17936;BME280;9093;52.062;4.508;2023-02-26T13:08:33;103040.78;;;6.42;58.02
17936;BME280;9093;52.062;4.508;2023-02-26T13:11:44;103030.19;;;6.42;58.32
17936;BME280;9093;52.062;4.508;2023-02-26T13:17:40;103034.59;;;6.51;58.09
17936;BME280;9093;52.062;4.508;2023-02-26T13:20:25;103046.94;;;6.58;58.02
17936;BME280;9093;52.062;4.508;2023-02-26T13:23:18;103032.78;;;6.59;58.03
17936;BME280;9093;52.062;4.508;2023-02-26T13:26:03;103031.91;;;6.67;58.11
17936;BME280;9093;52.062;4.508;2023-02-26T13:28:57;103031.00;;;6.73;57.83
17936;BME280;9093;52.062;4.508;2023-02-26T13:32:11;103031.88;;;6.76;57.88
17936;BME280;9093;52.062;4.508;2023-02-26T13:35:05;103031.88;;;6.76;58.03
17936;BME280;9093;52.062;4.508;2023-02-26T13:37:58;103040.72;;;6.75;57.79
17936;BME280;9093;52.062;4.508;2023-02-26T13:40:45;103039.81;;;6.78;58.05
17936;BME280;9093;52.062;4.508;2023-02-26T13:46:31;103023.84;;;6.84;57.57
17936;BME280;9093;52.062;4.508;2023-02-26T13:49:21;103031.84;;;6.87;57.74
17936;BME280;9093;52.062;4.508;2023-02-26T13:52:04;103015.88;;;6.90;57.94
17936;BME280;9093;52.062;4.508;2023-02-26T13:55:04;103022.06;;;6.95;57.59
17936;BME280;9093;52.062;4.508;2023-02-26T13:57:50;103019.41;;;6.95;57.59
17936;BME280;9093;52.062;4.508;2023-02-26T14:00:34;103010.53;;;6.98;57.53
17936;BME280;9093;52.062;4.508;2023-02-26T14:06:21;103009.63;;;7.05;57.41
17936;BME280;9093;52.062;4.508;2023-02-26T14:09:14;103016.66;;;7.10;57.27
17936;BME280;9093;52.062;4.508;2023-02-26T14:17:48;103020.13;;;7.31;57.04
17936;BME280;9093;52.062;4.508;2023-02-26T14:20:31;103017.41;;;7.34;57.13
17936;BME280;9093;52.062;4.508;2023-02-26T14:23:26;103020.06;;;7.35;56.79
17936;BME280;9093;52.062;4.508;2023-02-26T14:26:13;103018.28;;;7.42;56.98
17936;BME280;9093;52.062;4.508;2023-02-26T14:29:06;103020.88;;;7.49;56.98
17936;BME280;9093;52.062;4.508;2023-02-26T14:32:04;103015.53;;;7.54;56.84
17936;BME280;9093;52.062;4.508;2023-02-26T14:34:52;103021.69;;;7.62;56.82
17936;BME280;9093;52.062;4.508;2023-02-26T14:37:35;103019.88;;;7.70;56.89
17936;BME280;9093;52.062;4.508;2023-02-26T14:40:21;103024.25;;;7.76;56.63
17936;BME280;9093;52.062;4.508;2023-02-26T14:43:05;103017.13;;;7.79;56.47
17936;BME280;9093;52.062;4.508;2023-02-26T14:45:48;103034.00;;;7.75;57.14
17936;BME280;9093;52.062;4.508;2023-02-26T14:48:29;103023.28;;;7.84;56.54
17936;BME280;9093;52.062;4.508;2023-02-26T14:51:28;103018.84;;;7.88;56.48
17936;BME280;9093;52.062;4.508;2023-02-26T15:00:42;103025.00;;;7.94;56.17
17936;BME280;9093;52.062;4.508;2023-02-26T15:03:51;103022.38;;;7.85;56.28
17936;BME280;9093;52.062;4.508;2023-02-26T15:06:57;103028.59;;;7.87;55.88
17936;BME280;9093;52.062;4.508;2023-02-26T15:19:30;103038.25;;;8.00;55.38
17936;BME280;9093;52.062;4.508;2023-02-26T15:25:31;103037.34;;;7.98;55.38
17936;BME280;9093;52.062;4.508;2023-02-26T15:28:25;103033.81;;;7.99;55.22
17936;BME280;9093;52.062;4.508;2023-02-26T15:31:08;103035.56;;;8.00;55.09
17936;BME280;9093;52.062;4.508;2023-02-26T15:33:54;103039.13;;;8.02;54.98
17936;BME280;9093;52.062;4.508;2023-02-26T15:36:35;103037.31;;;8.04;54.87
17936;BME280;9093;52.062;4.508;2023-02-26T15:39:17;103038.19;;;8.05;54.93
17936;BME280;9093;52.062;4.508;2023-02-26T15:41:58;103048.84;;;8.03;54.94
17936;BME280;9093;52.062;4.508;2023-02-26T15:44:38;103047.06;;;8.05;54.76
17936;BME280;9093;52.062;4.508;2023-02-26T15:47:19;103048.00;;;8.01;55.00
17936;BME280;9093;52.062;4.508;2023-02-26T15:50:00;103056.88;;;8.00;54.89
17936;BME280;9093;52.062;4.508;2023-02-26T15:52:42;103054.19;;;8.00;55.14
17936;BME280;9093;52.062;4.508;2023-02-26T15:55:22;103057.75;;;8.01;54.98
17936;BME280;9093;52.062;4.508;2023-02-26T15:58:05;103063.97;;;7.98;54.91
17936;BME280;9093;52.062;4.508;2023-02-26T16:00:52;103057.81;;;7.93;54.77
17936;BME280;9093;52.062;4.508;2023-02-26T16:03:35;103064.06;;;7.86;54.96
17936;BME280;9093;52.062;4.508;2023-02-26T16:06:17;103062.41;;;7.70;55.35
17936;BME280;9093;52.062;4.508;2023-02-26T16:08:58;103071.28;;;7.69;54.98
17936;BME280;9093;52.062;4.508;2023-02-26T16:11:40;103060.69;;;7.63;55.09
17936;BME280;9093;52.062;4.508;2023-02-26T16:14:26;103056.28;;;7.56;55.05
17936;BME280;9093;52.062;4.508;2023-02-26T16:17:13;103053.66;;;7.50;55.19
17936;BME280;9093;52.062;4.508;2023-02-26T16:19:58;103065.22;;;7.44;55.33
17936;BME280;9093;52.062;4.508;2023-02-26T16:22:48;103059.03;;;7.41;55.39
17936;BME280;9093;52.062;4.508;2023-02-26T16:25:36;103056.41;;;7.38;55.30
17936;BME280;9093;52.062;4.508;2023-02-26T16:28:21;103059.97;;;7.32;55.50
17936;BME280;9093;52.062;4.508;2023-02-26T16:31:04;103060.88;;;7.23;55.60
17936;BME280;9093;52.062;4.508;2023-02-26T16:36:40;103059.19;;;7.04;55.50
17936;BME280;9093;52.062;4.508;2023-02-26T16:39:26;103063.69;;;6.93;55.59
17936;BME280;9093;52.062;4.508;2023-02-26T16:42:19;103065.47;;;6.85;55.78
17936;BME280;9093;52.062;4.508;2023-02-26T16:45:19;103069.03;;;6.73;55.53
17936;BME280;9093;52.062;4.508;2023-02-26T16:48:23;103073.47;;;6.67;55.89
17936;BME280;9093;52.062;4.508;2023-02-26T16:51:10;103068.19;;;6.61;56.00
17936;BME280;9093;52.062;4.508;2023-02-26T16:53:57;103075.28;;;6.57;55.85
17936;BME280;9093;52.062;4.508;2023-02-26T16:56:39;103089.41;;;6.52;55.87
17936;BME280;9093;52.062;4.508;2023-02-26T16:59:25;103084.13;;;6.42;55.81